createdAt,value
2017-08-17T00:00:39.883Z,101308.04
2017-08-17T00:03:07.271Z,101303.26
2017-08-17T00:05:34.676Z,101291.98
2017-08-17T00:08:02.278Z,101291.02
2017-08-17T00:10:29.685Z,101292.45
2017-08-17T00:12:57.073Z,101293.48
2017-08-17T00:15:24.463Z,101297.38
2017-08-17T00:17:52.082Z,101293.60
2017-08-17T00:20:19.675Z,101295.54
2017-08-17T00:22:47.278Z,101297.17
2017-08-17T00:25:14.678Z,101293.15
2017-08-17T00:27:42.062Z,101288.66
2017-08-17T00:30:09.459Z,101289.13
2017-08-17T00:32:36.842Z,101277.36
2017-08-17T00:35:04.255Z,101273.48
2017-08-17T00:37:31.645Z,101282.88
2017-08-17T00:39:59.030Z,101276.61
2017-08-17T00:42:26.423Z,101282.27
2017-08-17T00:44:53.821Z,101283.00
2017-08-17T00:47:21.436Z,101280.48
2017-08-17T00:49:48.827Z,101278.27
2017-08-17T00:52:16.219Z,101271.95
2017-08-17T00:54:43.606Z,101271.48
2017-08-17T00:57:11.003Z,101272.45
2017-08-17T00:59:38.403Z,101274.03
2017-08-17T01:02:05.804Z,101271.17
2017-08-17T01:04:33.196Z,101271.25
2017-08-17T01:07:00.592Z,101270.91
2017-08-17T01:09:27.984Z,101272.56
2017-08-17T01:11:55.378Z,101268.67
2017-08-17T01:14:22.771Z,101278.70
2017-08-17T01:16:50.158Z,101280.63
2017-08-17T01:19:17.544Z,101271.97
2017-08-17T01:21:44.939Z,101270.64
2017-08-17T01:24:12.336Z,101262.39
2017-08-17T01:26:39.719Z,101257.03
2017-08-17T01:29:07.112Z,101254.44
2017-08-17T01:31:34.803Z,101251.66
2017-08-17T01:34:02.212Z,101251.54
2017-08-17T01:36:29.649Z,101247.00
2017-08-17T01:38:57.021Z,101241.62
2017-08-17T01:41:24.439Z,101231.34
2017-08-17T01:43:51.830Z,101234.09
2017-08-17T01:46:19.215Z,101236.96
2017-08-17T01:48:46.607Z,101237.33
2017-08-17T01:51:13.993Z,101240.81
2017-08-17T01:53:41.395Z,101238.80
2017-08-17T01:56:08.783Z,101229.30
2017-08-17T01:58:36.175Z,101227.28
2017-08-17T02:01:03.571Z,101221.24
2017-08-17T02:03:30.969Z,101223.87
2017-08-17T02:05:58.582Z,101212.67
2017-08-17T02:08:25.984Z,101199.20
2017-08-17T02:10:53.371Z,101192.45
2017-08-17T02:13:20.768Z,101193.08
2017-08-17T02:15:48.167Z,101191.39
2017-08-17T02:18:15.584Z,101189.75
2017-08-17T02:20:42.975Z,101184.12
2017-08-17T02:23:10.371Z,101178.84
2017-08-17T02:25:37.769Z,101173.67
2017-08-17T02:28:05.155Z,101177.14
2017-08-17T02:30:32.559Z,101178.92
2017-08-17T02:32:59.951Z,101178.95
2017-08-17T02:35:27.358Z,101177.42
2017-08-17T02:37:54.752Z,101178.53
2017-08-17T02:40:22.167Z,101175.11
2017-08-17T02:42:49.548Z,101179.08
2017-08-17T02:45:16.939Z,101175.48
2017-08-17T02:47:44.327Z,101176.74
2017-08-17T02:50:11.733Z,101176.34
2017-08-17T02:52:39.130Z,101181.57
2017-08-17T02:55:06.531Z,101184.29
2017-08-17T02:57:33.922Z,101178.88
2017-08-17T03:00:01.319Z,101179.37
2017-08-17T03:02:28.710Z,101173.97
2017-08-17T03:04:56.102Z,101173.14
2017-08-17T03:07:23.497Z,101171.03
2017-08-17T03:09:50.876Z,101170.81
2017-08-17T03:12:18.275Z,101162.30
2017-08-17T03:14:45.667Z,101160.11
2017-08-17T03:17:13.943Z,101163.27
2017-08-17T03:19:41.331Z,101159.55
2017-08-17T03:22:08.750Z,101154.59
2017-08-17T03:24:36.127Z,101157.89
2017-08-17T03:27:03.514Z,101156.72
2017-08-17T03:29:30.907Z,101160.38
2017-08-17T03:31:58.307Z,101149.06
2017-08-17T03:34:25.720Z,101142.91
2017-08-17T03:36:53.147Z,101144.33
2017-08-17T03:39:20.535Z,101143.13
2017-08-17T03:41:47.936Z,101139.18
2017-08-17T03:44:15.330Z,101129.89
2017-08-17T03:46:42.751Z,101128.75
2017-08-17T03:49:10.155Z,101125.87
2017-08-17T03:51:37.547Z,101124.83
2017-08-17T03:54:04.943Z,101130.98
2017-08-17T03:56:32.343Z,101123.75
2017-08-17T03:58:59.739Z,101118.52
2017-08-17T04:01:27.144Z,101114.87
2017-08-17T04:03:54.554Z,101116.86
2017-08-17T04:06:21.962Z,101119.58
2017-08-17T04:08:49.379Z,101118.46
2017-08-17T04:11:16.779Z,101116.22
2017-08-17T04:13:44.178Z,101123.83
2017-08-17T04:16:11.593Z,101123.14
2017-08-17T04:18:38.990Z,101129.48
2017-08-17T04:21:06.603Z,101133.53
2017-08-17T04:23:33.999Z,101136.94
2017-08-17T04:26:01.395Z,101127.06
2017-08-17T04:28:28.795Z,101127.07
2017-08-17T04:30:56.212Z,101120.30
2017-08-17T04:33:23.607Z,101112.81
2017-08-17T04:35:51.012Z,101116.91
2017-08-17T04:38:18.414Z,101111.47
2017-08-17T04:40:45.814Z,101110.29
2017-08-17T04:43:13.223Z,101112.68
2017-08-17T04:45:40.623Z,101105.40
2017-08-17T04:48:08.031Z,101103.64
2017-08-17T04:50:35.427Z,101099.64
2017-08-17T04:53:02.830Z,101104.51
2017-08-17T04:55:30.228Z,101100.91
2017-08-17T04:58:15.166Z,101095.84
2017-08-17T05:00:42.555Z,101095.33
2017-08-17T05:03:09.971Z,101089.55
2017-08-17T05:05:37.372Z,101096.67
2017-08-17T05:08:04.779Z,101087.52
2017-08-17T05:10:32.196Z,101086.38
2017-08-17T05:12:59.582Z,101084.63
2017-08-17T05:15:26.983Z,101078.05
2017-08-17T05:17:54.371Z,101078.47
2017-08-17T05:20:21.770Z,101074.61
2017-08-17T05:22:49.451Z,101079.05
2017-08-17T05:25:16.855Z,101075.87
2017-08-17T05:27:44.248Z,101073.61
2017-08-17T05:30:11.643Z,101076.58
2017-08-17T05:32:39.039Z,101071.02
2017-08-17T05:35:06.438Z,101071.98
2017-08-17T05:37:33.839Z,101076.21
2017-08-17T05:40:01.243Z,101073.61
2017-08-17T05:42:28.650Z,101070.64
2017-08-17T05:44:56.047Z,101071.06
2017-08-17T05:47:23.441Z,101070.30
2017-08-17T05:49:50.852Z,101064.02
2017-08-17T05:52:18.239Z,101067.74
2017-08-17T05:54:45.884Z,101059.75
2017-08-17T05:57:13.278Z,101059.94
2017-08-17T05:59:40.679Z,101048.09
2017-08-17T06:02:08.086Z,101051.06
2017-08-17T06:04:35.810Z,101042.33
2017-08-17T06:07:03.222Z,101048.38
2017-08-17T06:09:30.627Z,101049.38
2017-08-17T06:11:58.034Z,101045.84
2017-08-17T06:14:25.423Z,101052.50
2017-08-17T06:16:52.841Z,101054.44
2017-08-17T06:19:20.234Z,101044.93
2017-08-17T06:21:47.635Z,101046.78
2017-08-17T06:24:15.031Z,101039.31
2017-08-17T06:26:42.444Z,101035.67
2017-08-17T06:29:09.830Z,101036.20
2017-08-17T06:31:37.262Z,101036.86
2017-08-17T06:34:04.654Z,101030.30
2017-08-17T06:36:32.062Z,101035.00
2017-08-17T06:38:59.462Z,101033.34
2017-08-17T06:41:26.872Z,101039.22
2017-08-17T06:43:54.502Z,101039.79
2017-08-17T06:46:21.915Z,101031.33
2017-08-17T06:48:49.308Z,101027.91
2017-08-17T06:51:16.706Z,101024.31
2017-08-17T06:53:44.110Z,101017.14
2017-08-17T06:56:11.515Z,101014.31
2017-08-17T06:58:38.927Z,101008.17
2017-08-17T07:01:06.346Z,100999.06
2017-08-17T07:03:33.777Z,100998.66
2017-08-17T07:06:01.162Z,100997.39
2017-08-17T07:08:28.556Z,100994.45
2017-08-17T07:10:55.959Z,100991.85
2017-08-17T07:13:23.363Z,100996.95
2017-08-17T07:15:50.767Z,100995.53
2017-08-17T07:18:18.167Z,100991.64
2017-08-17T07:20:45.668Z,100994.11
2017-08-17T07:23:13.070Z,100988.22
2017-08-17T07:25:40.466Z,100989.02
2017-08-17T07:28:08.107Z,100992.64
2017-08-17T07:30:35.511Z,100992.64
2017-08-17T07:33:03.226Z,100987.75
2017-08-17T07:35:30.648Z,100995.95
2017-08-17T07:37:58.034Z,100993.92
2017-08-17T07:40:25.439Z,100998.22
2017-08-17T07:42:52.835Z,100994.91
2017-08-17T07:45:20.236Z,100997.64
2017-08-17T07:47:47.638Z,100990.64
2017-08-17T07:50:15.039Z,100984.02
2017-08-17T07:52:42.439Z,100978.12
2017-08-17T07:55:09.838Z,100981.49
2017-08-17T07:57:37.239Z,100988.66
2017-08-17T08:00:04.640Z,100988.86
2017-08-17T08:02:32.032Z,100989.98
2017-08-17T08:04:59.435Z,100991.56
2017-08-17T08:07:26.830Z,100984.79
2017-08-17T08:09:54.227Z,100984.79
2017-08-17T08:12:21.919Z,100977.70
2017-08-17T08:14:49.339Z,100973.09
2017-08-17T08:17:17.040Z,100975.02
2017-08-17T08:19:44.428Z,100968.13
2017-08-17T08:22:11.827Z,100964.85
2017-08-17T08:24:39.235Z,100970.33
2017-08-17T08:27:06.636Z,100965.44
2017-08-17T08:29:34.022Z,100969.67
2017-08-17T08:32:01.423Z,100966.11
2017-08-17T08:34:28.811Z,100969.58
2017-08-17T08:36:56.226Z,100961.55
2017-08-17T08:39:23.618Z,100964.88
2017-08-17T08:41:51.016Z,100964.72
2017-08-17T08:44:18.413Z,100966.38
2017-08-17T08:46:45.826Z,100963.61
2017-08-17T08:49:13.211Z,100968.54
2017-08-17T08:51:40.611Z,100964.18
2017-08-17T08:54:08.016Z,100961.31
2017-08-17T08:56:35.420Z,100960.34
2017-08-17T08:59:02.807Z,100961.55
2017-08-17T09:01:30.202Z,100959.72
2017-08-17T09:03:57.607Z,100949.63
2017-08-17T09:06:25.018Z,100952.34
2017-08-17T09:08:52.410Z,100945.80
2017-08-17T09:11:19.811Z,100943.85
2017-08-17T09:13:47.209Z,100940.19
2017-08-17T09:16:14.606Z,100933.79
2017-08-17T09:18:42.015Z,100940.20
2017-08-17T09:21:09.415Z,100938.53
2017-08-17T09:23:36.811Z,100936.37
2017-08-17T09:26:04.203Z,100929.95
2017-08-17T09:28:31.600Z,100935.45
2017-08-17T09:30:59.306Z,100928.53
2017-08-17T09:33:26.702Z,100921.34
2017-08-17T09:35:54.098Z,100916.32
2017-08-17T09:38:21.499Z,100902.97
2017-08-17T09:40:48.883Z,100903.91
2017-08-17T09:43:16.296Z,100903.05
2017-08-17T09:45:43.674Z,100897.80
2017-08-17T09:48:11.072Z,100899.58
2017-08-17T09:50:38.454Z,100892.92
2017-08-17T09:53:05.866Z,100885.73
2017-08-17T09:55:33.267Z,100879.97
2017-08-17T09:58:00.674Z,100882.23
2017-08-17T10:00:28.068Z,100872.13
2017-08-17T10:02:55.459Z,100876.32
2017-08-17T10:05:22.857Z,100874.55
2017-08-17T10:07:50.237Z,100877.53
2017-08-17T10:10:17.679Z,100874.75
2017-08-17T10:12:45.068Z,100877.88
2017-08-17T10:15:12.473Z,100870.20
2017-08-17T10:17:39.862Z,100864.97
2017-08-17T10:20:07.904Z,100873.08
2017-08-17T10:22:35.282Z,100868.30
2017-08-17T10:25:02.683Z,100870.61
2017-08-17T10:27:30.071Z,100873.83
2017-08-17T10:29:57.476Z,100889.64
2017-08-17T10:32:24.934Z,100881.35
2017-08-17T10:34:52.322Z,100885.12
2017-08-17T10:37:19.722Z,100881.03
2017-08-17T10:39:47.114Z,100871.62
2017-08-17T10:42:14.511Z,100876.38
2017-08-17T10:44:41.917Z,100877.81
2017-08-17T10:47:09.299Z,100881.00
2017-08-17T10:49:36.703Z,100878.39
2017-08-17T10:52:04.094Z,100869.92
2017-08-17T10:54:31.483Z,100866.94
2017-08-17T10:56:58.875Z,100874.34
2017-08-17T10:59:26.273Z,100872.11
2017-08-17T11:01:53.675Z,100873.82
2017-08-17T11:04:21.068Z,100874.95
2017-08-17T11:06:48.467Z,100872.65
2017-08-17T11:09:15.863Z,100866.92
2017-08-17T11:11:43.270Z,100866.94
2017-08-17T11:14:10.659Z,100871.80
2017-08-17T11:16:38.067Z,100869.19
2017-08-17T11:19:05.459Z,100860.68
2017-08-17T11:21:32.847Z,100853.87
2017-08-17T11:24:00.248Z,100855.53
2017-08-17T11:26:27.644Z,100853.61
2017-08-17T11:28:55.108Z,100844.88
2017-08-17T11:31:22.495Z,100849.95
2017-08-17T11:33:49.894Z,100845.18
2017-08-17T11:36:17.290Z,100842.76
2017-08-17T11:38:44.683Z,100844.78
2017-08-17T11:41:12.098Z,100847.31
2017-08-17T11:43:39.709Z,100838.48
2017-08-17T11:46:07.132Z,100839.16
2017-08-17T11:48:33.994Z,100832.42
2017-08-17T11:51:00.819Z,100832.25
2017-08-17T11:53:28.221Z,100838.86
2017-08-17T11:55:55.608Z,100827.29
2017-08-17T11:58:23.009Z,100830.05
2017-08-17T12:00:50.387Z,100824.44
2017-08-17T12:03:17.788Z,100818.40
2017-08-17T12:05:45.181Z,100822.89
2017-08-17T12:08:12.567Z,100822.89
2017-08-17T12:10:39.963Z,100825.83
2017-08-17T12:13:07.567Z,100826.91
2017-08-17T12:15:41.870Z,100825.45
2017-08-17T12:18:09.256Z,100825.49
2017-08-17T12:20:36.637Z,100829.98
2017-08-17T12:23:04.042Z,100824.78
2017-08-17T12:25:31.438Z,100825.11
2017-08-17T12:27:58.834Z,100830.05
2017-08-17T12:30:26.227Z,100830.44
2017-08-17T12:32:53.650Z,100827.91
2017-08-17T12:35:21.047Z,100826.20
2017-08-17T12:37:48.439Z,100826.92
2017-08-17T12:40:15.913Z,100824.78
2017-08-17T12:42:43.287Z,100827.86
2017-08-17T12:45:10.701Z,100825.05
2017-08-17T12:47:38.084Z,100828.93
2017-08-17T12:50:05.479Z,100824.78
2017-08-17T12:52:32.878Z,100821.65
2017-08-17T12:55:00.270Z,100820.66
2017-08-17T12:57:27.659Z,100821.83
2017-08-17T12:59:55.098Z,100817.88
2017-08-17T13:02:22.475Z,100822.27
2017-08-17T13:04:49.871Z,100807.57
2017-08-17T13:07:17.259Z,100812.36
2017-08-17T13:09:44.650Z,100807.61
2017-08-17T13:12:12.043Z,100802.95
2017-08-17T13:14:39.427Z,100793.25
2017-08-17T13:17:06.884Z,100798.08
2017-08-17T13:19:34.258Z,100793.70
2017-08-17T13:22:01.663Z,100792.23
2017-08-17T13:24:29.063Z,100787.13
2017-08-17T13:26:56.455Z,100789.66
2017-08-17T13:29:23.838Z,100785.27
2017-08-17T13:31:51.227Z,100788.12
2017-08-17T13:34:18.619Z,100790.84
2017-08-17T13:36:46.018Z,100796.00
2017-08-17T13:39:13.407Z,100799.19
2017-08-17T13:41:40.811Z,100795.11
2017-08-17T13:44:08.415Z,100795.33
2017-08-17T13:46:35.852Z,100791.38
2017-08-17T13:49:03.236Z,100791.31
2017-08-17T13:51:30.631Z,100787.24
2017-08-17T13:53:58.022Z,100782.25
2017-08-17T13:56:25.418Z,100781.04
2017-08-17T13:58:52.846Z,100777.38
2017-08-17T14:01:20.251Z,100776.19
2017-08-17T14:03:47.655Z,100770.67
2017-08-17T14:06:15.046Z,100765.33
2017-08-17T14:08:42.439Z,100761.25
2017-08-17T14:11:09.827Z,100757.28
2017-08-17T14:13:37.261Z,100755.40
2017-08-17T14:16:04.632Z,100751.52
2017-08-17T14:18:32.036Z,100747.23
2017-08-17T14:20:59.414Z,100744.09
2017-08-17T14:23:26.812Z,100732.86
2017-08-17T14:25:54.204Z,100722.06
2017-08-17T14:28:21.599Z,100724.13
2017-08-17T14:30:48.991Z,100729.31
2017-08-17T14:33:16.604Z,100725.98
2017-08-17T14:35:43.992Z,100726.91
2017-08-17T14:38:11.396Z,100732.41
2017-08-17T14:40:38.768Z,100735.98
2017-08-17T14:43:06.229Z,100737.27
2017-08-17T14:45:33.820Z,100735.20
2017-08-17T14:48:01.424Z,100736.64
2017-08-17T14:50:28.819Z,100723.53
2017-08-17T14:52:56.207Z,100716.27
2017-08-17T14:55:23.592Z,100716.41
2017-08-17T14:57:50.977Z,100715.80
2017-08-17T15:00:18.586Z,100713.02
2017-08-17T15:02:45.975Z,100708.98
2017-08-17T15:05:13.384Z,100713.05
2017-08-17T15:07:40.779Z,100705.81
2017-08-17T15:10:08.181Z,100699.62
2017-08-17T15:12:35.583Z,100697.14
2017-08-17T15:15:02.979Z,100704.05
2017-08-17T15:17:30.589Z,100710.75
2017-08-17T15:19:57.989Z,100718.77
2017-08-17T15:22:25.376Z,100717.84
2017-08-17T15:24:52.770Z,100717.84
2017-08-17T15:27:20.166Z,100732.31
2017-08-17T15:29:47.576Z,100737.48
2017-08-17T15:32:15.189Z,100738.80
2017-08-17T15:34:42.578Z,100745.42
2017-08-17T15:37:09.967Z,100740.39
2017-08-17T15:39:37.371Z,100745.04
2017-08-17T15:42:04.761Z,100748.13
2017-08-17T15:44:32.150Z,100746.69
2017-08-17T15:47:00.299Z,100742.50
2017-08-17T15:49:27.692Z,100734.03
2017-08-17T15:51:55.076Z,100730.29
2017-08-17T15:54:48.086Z,100725.78
2017-08-17T15:57:15.481Z,100726.24
2017-08-17T15:59:42.914Z,100735.52
2017-08-17T16:02:10.328Z,100736.12
2017-08-17T16:04:37.731Z,100735.27
2017-08-17T16:07:05.123Z,100745.86
2017-08-17T16:09:32.731Z,100743.98
2017-08-17T16:12:00.131Z,100742.62
2017-08-17T16:14:27.522Z,100750.89
2017-08-17T16:16:54.919Z,100754.94
2017-08-17T16:19:22.515Z,100764.55
2017-08-17T16:21:49.924Z,100783.88
2017-08-17T16:24:17.306Z,100781.20
2017-08-17T16:26:44.923Z,100783.69
2017-08-17T16:29:12.319Z,100789.59
2017-08-17T16:31:39.939Z,100791.89
2017-08-17T16:34:07.339Z,100791.73
2017-08-17T16:36:34.739Z,100785.87
2017-08-17T16:39:02.139Z,100782.89
2017-08-17T16:41:29.553Z,100776.36
2017-08-17T16:43:56.977Z,100777.53
2017-08-17T16:46:24.403Z,100766.66
2017-08-17T16:48:52.009Z,100767.84
2017-08-17T16:51:19.403Z,100769.16
2017-08-17T16:53:46.835Z,100773.77
2017-08-17T16:56:14.247Z,100778.83
2017-08-17T16:58:41.647Z,100783.36
2017-08-17T17:01:09.056Z,100789.28
2017-08-17T17:03:36.670Z,100782.97
2017-08-17T17:06:04.067Z,100782.22
2017-08-17T17:08:31.466Z,100787.62
2017-08-17T17:10:58.902Z,100777.80
2017-08-17T17:13:26.305Z,100783.21
2017-08-17T17:15:53.691Z,100781.62
2017-08-17T17:18:21.097Z,100780.19
2017-08-17T17:20:48.516Z,100774.77
2017-08-17T17:23:15.923Z,100772.77
2017-08-17T17:25:43.310Z,100768.41
2017-08-17T17:28:10.723Z,100770.98
2017-08-17T17:30:38.112Z,100769.37
2017-08-17T17:33:05.511Z,100770.52
2017-08-17T17:35:32.927Z,100780.16
2017-08-17T17:38:01.238Z,100788.53
2017-08-17T17:40:28.620Z,100791.94
2017-08-17T17:42:56.020Z,100799.95
2017-08-17T17:45:23.435Z,100800.86
2017-08-17T17:47:50.835Z,100797.55
2017-08-17T17:50:18.454Z,100792.11
2017-08-17T17:52:45.892Z,100778.03
2017-08-17T17:55:13.269Z,100772.19
2017-08-17T17:57:40.685Z,100752.82
2017-08-17T18:00:08.080Z,100765.53
2017-08-17T18:02:35.479Z,100780.63
2017-08-17T18:05:02.868Z,100794.92
2017-08-17T18:07:30.291Z,100789.39
2017-08-17T18:09:57.692Z,100776.54
2017-08-17T18:12:25.115Z,100770.40
2017-08-17T18:14:52.497Z,100766.37
2017-08-17T18:17:19.930Z,100743.42
2017-08-17T18:19:47.322Z,100742.88
2017-08-17T18:22:14.715Z,100764.09
2017-08-17T18:24:42.143Z,100776.48
2017-08-17T18:27:09.536Z,100782.82
2017-08-17T18:29:36.944Z,100789.27
2017-08-17T18:32:04.343Z,100760.55
2017-08-17T18:34:31.731Z,100762.27
2017-08-17T18:36:59.155Z,100777.10
2017-08-17T18:39:26.562Z,100772.33
2017-08-17T18:41:53.955Z,100778.63
2017-08-17T18:44:21.351Z,100785.84
2017-08-17T18:46:49.754Z,100793.95
2017-08-17T18:49:17.184Z,100804.30
2017-08-17T18:51:44.816Z,100800.66
2017-08-17T18:54:12.221Z,100782.87
2017-08-17T18:56:39.627Z,100774.05
2017-08-17T18:59:07.025Z,100784.16
2017-08-17T19:01:34.666Z,100780.58
2017-08-17T19:04:02.069Z,100768.92
2017-08-17T19:06:29.458Z,100769.73
2017-08-17T19:08:56.858Z,100782.86
2017-08-17T19:11:24.263Z,100789.41
2017-08-17T19:13:51.666Z,100793.00
2017-08-17T19:16:19.075Z,100792.17
2017-08-17T19:18:46.483Z,100793.99
2017-08-17T19:21:13.888Z,100798.09
2017-08-17T19:23:41.283Z,100796.55
2017-08-17T19:26:08.691Z,100803.45
2017-08-17T19:28:36.118Z,100814.56
2017-08-17T19:31:03.519Z,100806.98
2017-08-17T19:33:30.915Z,100808.64
2017-08-17T19:35:58.408Z,100810.52
2017-08-17T19:38:25.803Z,100809.50
2017-08-17T19:40:53.251Z,100808.99
2017-08-17T19:43:20.655Z,100810.28
2017-08-17T19:45:48.060Z,100801.59
2017-08-17T19:48:15.476Z,100807.83
2017-08-17T19:50:43.095Z,100811.86
2017-08-17T19:53:10.490Z,100808.17
2017-08-17T19:55:37.890Z,100810.81
2017-08-17T19:58:05.294Z,100811.90
2017-08-17T20:00:33.394Z,100810.05
2017-08-17T20:03:00.807Z,100811.13
2017-08-17T20:05:28.271Z,100807.59
2017-08-17T20:07:55.679Z,100805.72
2017-08-17T20:10:23.083Z,100800.60
2017-08-17T20:12:50.488Z,100802.72
2017-08-17T20:15:17.891Z,100799.87
2017-08-17T20:17:45.510Z,100800.23
2017-08-17T20:20:12.977Z,100799.09
2017-08-17T20:22:40.381Z,100798.90
2017-08-17T20:25:07.781Z,100792.35
2017-08-17T20:27:35.195Z,100794.42
2017-08-17T20:30:02.652Z,100790.95
2017-08-17T20:32:30.259Z,100789.97
2017-08-17T20:34:57.667Z,100794.85
2017-08-17T20:37:25.067Z,100796.50
2017-08-17T20:39:52.477Z,100792.21
2017-08-17T20:42:19.927Z,100790.70
2017-08-17T20:44:47.346Z,100787.42
2017-08-17T20:47:14.743Z,100792.52
2017-08-17T20:49:42.367Z,100781.98
2017-08-17T20:52:09.759Z,100782.55
2017-08-17T20:54:37.148Z,100784.12
2017-08-17T20:57:04.556Z,100791.95
2017-08-17T20:59:31.955Z,100789.98
2017-08-17T21:01:59.583Z,100788.92
2017-08-17T21:04:26.967Z,100793.13
2017-08-17T21:06:54.391Z,100782.87
2017-08-17T21:09:21.787Z,100785.41
2017-08-17T21:11:49.200Z,100787.80
2017-08-17T21:14:16.596Z,100800.72
2017-08-17T21:16:44.012Z,100792.31
2017-08-17T21:19:11.419Z,100786.28
2017-08-17T21:21:38.832Z,100785.87
2017-08-17T21:24:06.236Z,100790.00
2017-08-17T21:26:33.655Z,100780.41
2017-08-17T21:29:01.038Z,100779.73
2017-08-17T21:31:28.446Z,100774.47
2017-08-17T21:33:55.852Z,100775.82
2017-08-17T21:36:23.251Z,100782.20
2017-08-17T21:38:50.707Z,100778.94
2017-08-17T21:41:18.111Z,100788.39
2017-08-17T21:43:45.732Z,100788.03
2017-08-17T21:46:13.346Z,100789.23
2017-08-17T21:48:40.772Z,100797.88
2017-08-17T21:51:08.152Z,100786.95
2017-08-17T21:53:35.555Z,100787.43
2017-08-17T21:56:02.971Z,100789.94
2017-08-17T21:58:30.379Z,100781.95
2017-08-17T22:00:57.778Z,100778.81
2017-08-17T22:03:25.170Z,100778.91
2017-08-17T22:05:52.574Z,100777.62
2017-08-17T22:08:19.975Z,100785.55
2017-08-17T22:10:47.377Z,100784.87
2017-08-17T22:13:14.772Z,100780.67
2017-08-17T22:15:42.187Z,100783.46
2017-08-17T22:18:09.600Z,100787.83
2017-08-17T22:20:37.004Z,100786.48
2017-08-17T22:23:04.400Z,100782.87
2017-08-17T22:25:31.804Z,100783.52
2017-08-17T22:27:59.206Z,100784.55
2017-08-17T22:30:26.615Z,100782.95
2017-08-17T22:32:54.002Z,100784.06
2017-08-17T22:35:21.403Z,100783.13
2017-08-17T22:37:48.826Z,100779.03
2017-08-17T22:40:16.235Z,100780.28
2017-08-17T22:42:43.847Z,100778.86
2017-08-17T22:45:11.248Z,100780.49
2017-08-17T22:47:38.653Z,100785.59
2017-08-17T22:50:06.047Z,100779.14
2017-08-17T22:52:33.461Z,100777.84
2017-08-17T22:55:00.846Z,100772.55
2017-08-17T22:57:28.270Z,100769.34
2017-08-17T22:59:55.669Z,100763.12
2017-08-17T23:02:23.071Z,100773.22
2017-08-17T23:04:50.479Z,100767.73
2017-08-17T23:07:17.882Z,100770.27
2017-08-17T23:09:45.279Z,100767.92
2017-08-17T23:12:12.691Z,100764.07
2017-08-17T23:14:40.087Z,100770.62
2017-08-17T23:17:07.508Z,100764.05
2017-08-17T23:19:35.109Z,100764.66
2017-08-17T23:22:02.540Z,100767.86
2017-08-17T23:24:29.931Z,100774.81
2017-08-17T23:26:57.337Z,100770.13
2017-08-17T23:29:24.743Z,100764.52
2017-08-17T23:31:52.151Z,100768.30
2017-08-17T23:34:19.551Z,100761.73
2017-08-17T23:36:47.162Z,100766.45
2017-08-17T23:39:14.563Z,100762.64
2017-08-17T23:41:41.961Z,100760.14
2017-08-17T23:44:09.368Z,100759.37
2017-08-17T23:46:36.774Z,100755.15
2017-08-17T23:49:04.172Z,100763.07
2017-08-17T23:51:31.585Z,100762.81
2017-08-17T23:53:58.983Z,100757.75
2017-08-17T23:56:26.601Z,100759.37
2017-08-17T23:58:54.003Z,100761.91
